This is the latest recevied weather packets stored in our database for station/object N4DWK. If no packets are shown the sender has not sent any weather packets the latest 10 day(s).
| Time | Temp. | Humidity | Pressure | Rain* | Wind** | Luminosity | Snow |
|---|---|---|---|---|---|---|---|
| 1777469104 | 13.89° C | 87% | 1014.8 hPa | 0 mm | - | 56 W/m² | - |
| 1777468806 | 13.33° C | 88% | 1014.9 hPa | 0 mm | - | 44 W/m² | - |
| 1777468504 | 13.33° C | 88% | 1015.1 hPa | 0 mm | - | 46 W/m² | - |
| 1777468205 | 13.33° C | 88% | 1015.3 hPa | 0 mm | - | 39 W/m² | - |
| 1777467905 | 13.33° C | 88% | 1015.5 hPa | 0 mm | - | 33 W/m² | - |
| 1777467604 | 13.33° C | 88% | 1015.4 hPa | 0 mm | - | 32 W/m² | - |
| 1777467305 | 12.78° C | 88% | 1015.3 hPa | 0 mm | - | 30 W/m² | - |
| 1777467005 | 12.78° C | 88% | 1015.2 hPa | 0 mm | - | 33 W/m² | - |
| 1777466705 | 12.78° C | 89% | 1015.1 hPa | 0 mm | - | 40 W/m² | - |
| 1777466405 | 12.78° C | 89% | 1015.2 hPa | 0 mm | - | 37 W/m² | - |
| 1777466105 | 12.78° C | 88% | 1015.3 hPa | 0 mm | - | 33 W/m² | - |
| 1777465805 | 12.22° C | 88% | 1015.4 hPa | 0 mm | - | 30 W/m² | - |
| 1777465505 | 12.22° C | 88% | 1015.5 hPa | 0 mm | - | 26 W/m² | - |
| 1777465205 | 12.22° C | 88% | 1015.5 hPa | 0 mm | - | 21 W/m² | - |
| 1777464904 | 12.22° C | 89% | 1015.4 hPa | 0 mm | - | 19 W/m² | - |
| 1777464605 | 12.22° C | 89% | 1015.3 hPa | 0 mm | - | 19 W/m² | - |
| 1777464305 | 12.22° C | 89% | 1015.2 hPa | 0 mm | - | 21 W/m² | - |
| 1777464005 | 12.22° C | 88% | 1015.4 hPa | 0 mm | - | 18 W/m² | - |
| 1777463704 | 12.22° C | 89% | 1015.3 hPa | 0 mm | - | 18 W/m² | - |
| 1777463405 | 11.67° C | 89% | 1015.5 hPa | 0 mm | - | 14 W/m² | - |
| 1777463104 | 11.67° C | 89% | 1015.3 hPa | 0 mm | - | 12 W/m² | - |
| 1777462805 | 11.67° C | 89% | 1015.1 hPa | 0 mm | - | 12 W/m² | - |
| 1777462504 | 11.67° C | 89% | 1015 hPa | 0 mm | - | 12 W/m² | - |
| 1777462204 | 11.67° C | 89% | 1014.6 hPa | 0 mm | - | 16 W/m² | - |
| 1777461904 | 11.67° C | 89% | 1014.5 hPa | 0 mm | - | 16 W/m² | - |
* Rain latest hour (hover to see other rain measurements)
** Current wind speed in m/s (hover to see current wind gust speed)